Time;durP1;ratioP1;P1;durP2;ratioP2;P2;SDS_P1;SDS_P2;PMS_P1;PMS_P2;Temp;Humidity;BMP_temperature;BMP_pressure;BME280_temperature;BME280_humidity;BME280_pressure;Samples;Min_cycle;Max_cycle;Signal;HPM_P1;HPM_P2
2023/04/18 00:01:48;;;;;;;17.05;10.02;;;;;;;6.05;100.00;162146.53;5091873;28;20016;-58
2023/04/18 00:04:16;;;;;;;16.58;11.80;;;;;;;6.02;100.00;162141.13;5089649;28;20089;-58
2023/04/18 00:06:42;;;;;;;18.58;11.40;;;;;;;5.96;100.00;162124.94;5091624;28;20494;-58
2023/04/18 00:09:07;;;;;;;14.40;11.50;;;;;;;5.90;100.00;162108.81;5090199;28;20036;-59
2023/04/18 00:11:33;;;;;;;17.13;11.85;;;;;;;5.83;100.00;162089.97;5091749;28;20062;-59
2023/04/18 00:13:59;;;;;;;15.02;12.23;;;;;;;5.80;100.00;162081.88;5090120;28;20521;-59
2023/04/18 00:16:26;;;;;;;14.45;12.55;;;;;;;5.78;100.00;162076.47;5091782;28;20012;-59
2023/04/18 00:18:52;;;;;;;18.77;13.38;;;;;;;5.77;100.00;162073.81;5090082;28;20035;-59
2023/04/18 00:21:17;;;;;;;14.77;11.85;;;;;;;5.75;100.00;162068.44;5074878;28;20059;-60
2023/04/18 00:23:44;;;;;;;21.23;13.82;;;;;;;5.69;100.00;162055.00;5071629;28;20020;-59
2023/04/18 00:26:10;;;;;;;17.42;13.80;;;;;;;5.65;100.00;162044.19;5069268;28;20445;-59
2023/04/18 00:28:36;;;;;;;16.52;11.40;;;;;;;5.60;100.00;162030.75;5071241;28;20024;-59
2023/04/18 00:31:01;;;;;;;13.48;11.13;;;;;;;5.59;100.00;162028.06;5049713;28;20091;-59
2023/04/18 00:33:27;;;;;;;13.52;9.98;;;;;;;5.55;100.00;162018.66;5051285;28;20583;-59
2023/04/18 00:35:52;;;;;;;21.55;15.05;;;;;;;5.48;100.00;161999.81;5052568;28;20040;-62
2023/04/18 00:38:18;;;;;;;21.77;12.93;;;;;;;5.51;100.00;162006.53;5071072;28;20476;-62
2023/04/18 00:40:43;;;;;;;14.10;12.60;;;;;;;5.51;100.00;162006.53;5069154;28;20048;-62
2023/04/18 00:43:11;;;;;;;12.25;10.48;;;;;;;5.50;100.00;162005.19;5071066;28;20454;-62
2023/04/18 00:45:36;;;;;;;16.27;11.32;;;;;;;5.47;100.00;161995.78;5070024;28;20071;-62
2023/04/18 00:48:01;;;;;;;13.00;10.93;;;;;;;5.43;100.00;161985.00;5070519;28;20440;-62
2023/04/18 00:50:27;;;;;;;14.93;10.93;;;;;;;5.38;100.00;161974.25;5069659;28;20051;-61
2023/04/18 00:52:53;;;;;;;20.50;13.13;;;;;;;5.33;100.00;161959.44;5070917;28;20024;-62
2023/04/18 00:55:19;;;;;;;18.33;13.80;;;;;;;5.33;100.00;161959.44;5069208;28;20051;-62
2023/04/18 00:57:45;;;;;;;19.00;13.45;;;;;;;5.28;100.00;161946.00;5070522;28;20100;-61
2023/04/18 01:00:11;;;;;;;17.85;14.10;;;;;;;5.25;100.00;161939.25;5069097;28;20036;-61
2023/04/18 01:02:38;;;;;;;16.35;10.90;;;;;;;5.23;100.00;161933.91;5070796;28;20048;-61
2023/04/18 01:05:04;;;;;;;13.48;11.80;;;;;;;5.19;100.00;161923.13;5069309;28;20614;-62
2023/04/18 01:07:32;;;;;;;18.63;11.63;;;;;;;5.17;100.00;161917.78;5071076;28;20028;-61
2023/04/18 01:09:57;;;;;;;15.70;11.05;;;;;;;5.13;100.00;161906.97;5069304;28;20056;-61
2023/04/18 01:12:23;;;;;;;19.20;12.10;;;;;;;5.08;100.00;161896.25;5070521;28;20029;-62
2023/04/18 01:14:48;;;;;;;20.88;14.27;;;;;;;5.01;100.00;161877.41;5069201;28;20043;-62
2023/04/18 01:17:13;;;;;;;16.20;11.93;;;;;;;5.03;100.00;161882.75;5070478;28;20024;-62
2023/04/18 01:19:39;;;;;;;13.48;11.27;;;;;;;4.92;100.00;161853.19;5068528;28;20037;-62
2023/04/18 01:22:05;;;;;;;17.13;12.00;;;;;;;4.93;100.00;161855.91;5070392;28;20105;-62
2023/04/18 01:24:31;;;;;;;19.27;13.68;;;;;;;4.81;100.00;161824.97;5069513;28;20190;-62
2023/04/18 01:27:01;;;;;;;15.85;12.43;;;;;;;4.86;100.00;161837.06;5070055;28;20480;-61
2023/04/18 01:29:26;;;;;;;20.60;15.57;;;;;;;4.83;100.00;161830.34;5069359;28;20033;-62
2023/04/18 01:31:52;;;;;;;15.98;12.45;;;;;;;4.79;100.00;161818.25;5070691;28;20020;-62
2023/04/18 01:34:18;;;;;;;20.70;14.15;;;;;;;4.73;100.00;161804.75;5068750;28;20040;-62
2023/04/18 01:36:44;;;;;;;13.35;12.00;;;;;;;4.73;100.00;161803.44;5080436;28;20016;-62
2023/04/18 01:39:09;;;;;;;16.75;13.52;;;;;;;4.69;100.00;161794.03;5088828;28;20052;-61
2023/04/18 01:41:35;;;;;;;18.27;12.63;;;;;;;4.67;100.00;161788.63;5088952;28;20028;-62
2023/04/18 01:44:00;;;;;;;18.15;13.15;;;;;;;4.58;100.00;161764.44;5089289;28;20039;-61
2023/04/18 01:46:26;;;;;;;18.13;12.07;;;;;;;4.57;100.00;161761.78;5090654;28;20046;-62
2023/04/18 01:48:52;;;;;;;15.52;12.68;;;;;;;4.54;100.00;161753.69;5088930;28;20024;-62
2023/04/18 01:51:17;;;;;;;13.75;11.50;;;;;;;4.50;100.00;161744.28;5090200;28;20028;-62
2023/04/18 01:53:42;;;;;;;15.57;12.75;;;;;;;4.53;100.00;161751.00;5090270;28;20027;-62
2023/04/18 01:56:09;;;;;;;16.67;12.00;;;;;;;4.54;100.00;161753.69;5088136;28;20055;-62
2023/04/18 01:58:34;;;;;;;14.00;12.30;;;;;;;4.55;100.00;161756.38;5090656;28;20421;-62
2023/04/18 02:01:00;;;;;;;19.15;12.02;;;;;;;4.60;100.00;161771.19;5088716;28;20036;-62
2023/04/18 02:03:25;;;;;;;16.27;12.07;;;;;;;4.68;100.00;161791.34;5090527;28;20462;-63
2023/04/18 02:05:51;;;;;;;16.08;13.57;;;;;;;4.79;100.00;161818.25;5088708;28;20050;-62
2023/04/18 02:08:16;;;;;;;18.35;12.60;;;;;;;4.88;100.00;161842.41;5090327;28;20149;-62
2023/04/18 02:10:41;;;;;;;16.25;12.00;;;;;;;4.97;100.00;161865.31;5088711;28;20036;-62
2023/04/18 02:13:07;;;;;;;17.48;13.82;;;;;;;5.03;100.00;161882.75;5090045;28;20027;-63
2023/04/18 02:15:33;;;;;;;17.50;14.43;;;;;;;5.11;100.00;161901.59;5092000;28;20040;-62
2023/04/18 02:18:01;;;;;;;15.52;11.23;;;;;;;5.16;100.00;161916.41;5093747;28;20085;-63
2023/04/18 02:20:30;;;;;;;;;;;;;;;5.20;100.00;161925.81;5091376;28;20067;-63
2023/04/18 02:22:56;;;;;;;;;;;;;;;5.24;100.00;161936.59;5094396;28;19918;-63
2023/04/18 02:25:23;;;;;;;18.77;11.70;;;;;;;5.27;100.00;161944.66;5092531;28;19912;-61
2023/04/18 02:27:48;;;;;;;15.98;12.13;;;;;;;5.33;100.00;161960.78;5094117;28;20024;-61
2023/04/18 02:30:14;;;;;;;14.68;11.88;;;;;;;5.35;100.00;161964.84;5092279;28;20147;-62
2023/04/18 02:32:39;;;;;;;18.75;13.27;;;;;;;5.39;100.00;161976.97;5093691;28;20032;-62
2023/04/18 02:35:05;;;;;;;20.25;12.80;;;;;;;5.40;100.00;161979.59;5091843;28;20044;-61
2023/04/18 02:37:30;;;;;;;15.35;12.13;;;;;;;5.44;100.00;161989.03;5093656;28;20032;-61
2023/04/18 02:39:55;;;;;;;15.70;11.57;;;;;;;5.47;100.00;161997.13;5091880;28;20047;-62
2023/04/18 02:42:21;;;;;;;18.48;15.43;;;;;;;5.49;100.00;162001.13;5094126;28;20024;-62
2023/04/18 02:44:46;;;;;;;14.50;11.75;;;;;;;5.53;100.00;162011.94;5090684;28;20507;-62
2023/04/18 02:47:11;;;;;;;17.95;12.38;;;;;;;5.53;100.00;162011.94;5092722;28;20032;-61
2023/04/18 02:49:37;;;;;;;18.40;11.85;;;;;;;5.53;100.00;162013.25;5092198;28;20040;-61
2023/04/18 02:52:02;;;;;;;15.65;11.20;;;;;;;5.54;100.00;162014.63;5093549;28;20368;-63
2023/04/18 02:54:27;;;;;;;16.45;11.80;;;;;;;5.58;100.00;162025.38;5091866;28;20105;-62
2023/04/18 02:56:53;;;;;;;17.30;11.52;;;;;;;5.59;100.00;162028.06;5093106;28;20429;-60
2023/04/18 02:59:19;;;;;;;16.83;11.93;;;;;;;5.62;100.00;162036.09;5092151;28;20039;-59
2023/04/18 03:01:44;;;;;;;22.08;13.38;;;;;;;5.67;100.00;162049.59;5092839;28;20068;-60
2023/04/18 03:04:10;;;;;;;14.48;10.60;;;;;;;5.67;100.00;162049.59;5091379;28;20044;-60
2023/04/18 03:06:35;;;;;;;21.92;12.98;;;;;;;5.69;100.00;162055.00;5093382;28;20054;-59
2023/04/18 03:09:02;;;;;;;16.50;11.98;;;;;;;5.76;100.00;162071.13;5091326;28;20039;-59
2023/04/18 03:11:27;;;;;;;18.52;12.65;;;;;;;5.77;100.00;162073.81;5092897;28;20038;-60
2023/04/18 03:13:52;;;;;;;14.10;11.93;;;;;;;5.78;100.00;162076.47;5091784;28;20024;-60
2023/04/18 03:16:18;;;;;;;13.93;12.27;;;;;;;5.79;100.00;162079.16;5092341;28;20032;-59
2023/04/18 03:18:43;;;;;;;15.57;12.77;;;;;;;5.81;100.00;162084.56;5093056;28;20520;-59
2023/04/18 03:21:09;;;;;;;14.63;11.73;;;;;;;5.87;100.00;162100.72;5091281;28;20051;-59
2023/04/18 03:23:34;;;;;;;18.20;11.88;;;;;;;5.88;100.00;162104.72;5092836;28;20024;-60
2023/04/18 03:25:59;;;;;;;21.83;14.45;;;;;;;5.88;100.00;162104.72;5090853;28;20040;-59
2023/04/18 03:28:25;;;;;;;18.58;12.10;;;;;;;5.90;100.00;162107.41;5078675;28;20025;-59
2023/04/18 03:30:50;;;;;;;15.20;11.95;;;;;;;5.91;100.00;162111.50;5070850;28;20399;-59
2023/04/18 03:33:16;;;;;;;15.32;13.65;;;;;;;5.92;100.00;162114.16;5072308;28;20021;-59
2023/04/18 03:35:41;;;;;;;18.33;13.77;;;;;;;5.95;100.00;162122.25;5071114;28;20040;-59
2023/04/18 03:38:07;;;;;;;17.70;12.90;;;;;;;5.97;100.00;162127.63;5071900;28;20052;-59
2023/04/18 03:40:32;;;;;;;19.38;11.38;;;;;;;5.97;100.00;162126.25;5070897;28;20041;-59
2023/04/18 03:42:58;;;;;;;16.88;13.32;;;;;;;5.98;100.00;162130.34;5072058;28;20036;-59
2023/04/18 03:45:24;;;;;;;17.00;12.25;;;;;;;5.98;100.00;162130.34;5071166;28;20048;-59
2023/04/18 03:47:49;;;;;;;16.13;12.25;;;;;;;5.98;100.00;162130.34;5071945;28;20020;-59
2023/04/18 03:50:15;;;;;;;15.77;12.63;;;;;;;5.98;100.00;162130.34;5070608;28;20045;-59
2023/04/18 03:52:40;;;;;;;16.10;12.85;;;;;;;5.98;100.00;162128.97;5072283;28;20031;-60
2023/04/18 03:55:06;;;;;;;18.23;11.95;;;;;;;5.95;100.00;162122.25;5070097;28;20047;-60
2023/04/18 03:57:31;;;;;;;13.90;11.93;;;;;;;5.95;100.00;162120.91;5071988;28;20028;-59
2023/04/18 03:59:57;;;;;;;14.10;12.32;;;;;;;5.93;100.00;162116.84;5070487;28;20059;-61
2023/04/18 04:02:22;;;;;;;15.75;13.32;;;;;;;5.93;100.00;162116.84;5071530;28;20036;-61
2023/04/18 04:04:47;;;;;;;14.85;12.80;;;;;;;5.90;100.00;162107.41;5070510;28;20047;-63
2023/04/18 04:07:13;;;;;;;15.38;12.02;;;;;;;5.87;100.00;162100.72;5071826;28;20031;-58
2023/04/18 04:09:38;;;;;;;15.35;12.15;;;;;;;5.87;100.00;162100.72;5083364;28;20051;-57
2023/04/18 04:12:04;;;;;;;17.33;13.35;;;;;;;5.84;100.00;162092.66;5091854;28;20024;-57
2023/04/18 04:14:29;;;;;;;15.05;12.70;;;;;;;5.81;100.00;162084.56;5070543;28;20493;-57
2023/04/18 04:16:54;;;;;;;15.20;11.95;;;;;;;5.78;100.00;162076.47;5070743;28;20036;-57
2023/04/18 04:19:20;;;;;;;19.73;14.18;;;;;;;5.75;100.00;162068.44;5070242;28;20033;-57
2023/04/18 04:21:45;;;;;;;21.42;13.30;;;;;;;5.73;100.00;162064.41;5071275;28;20515;-55
2023/04/18 04:24:12;;;;;;;14.60;12.85;;;;;;;5.71;100.00;162060.34;5069590;28;20075;-60
2023/04/18 04:26:37;;;;;;;15.13;12.30;;;;;;;5.70;100.00;162057.63;5071850;28;20025;-56
2023/04/18 04:29:03;;;;;;;14.18;12.48;;;;;;;5.70;100.00;162056.31;5069907;28;20384;-57
2023/04/18 04:31:29;;;;;;;14.00;12.48;;;;;;;5.76;100.00;162071.13;5071327;28;20020;-56
2023/04/18 04:33:54;;;;;;;15.55;11.10;;;;;;;5.81;100.00;162084.56;5080824;28;20044;-56
2023/04/18 04:36:21;;;;;;;15.73;12.20;;;;;;;5.81;100.00;162084.56;5090923;28;20035;-56
2023/04/18 04:38:47;;;;;;;13.60;12.23;;;;;;;5.88;100.00;162103.41;5071889;28;20378;-56
2023/04/18 04:41:12;;;;;;;13.18;11.43;;;;;;;5.90;100.00;162107.41;5083340;28;20050;-56
2023/04/18 04:43:39;;;;;;;15.30;12.05;;;;;;;5.95;100.00;162122.25;5080884;28;20032;-57
2023/04/18 04:46:06;;;;;;;13.88;12.13;;;;;;;5.95;100.00;162122.25;5069259;28;20067;-59
2023/04/18 04:48:31;;;;;;;13.70;12.10;;;;;;;5.91;100.00;162111.50;5071483;28;20021;-59
2023/04/18 04:50:58;;;;;;;18.23;12.40;;;;;;;6.01;100.00;162138.44;5069397;28;20051;-59
2023/04/18 04:53:25;;;;;;;15.65;12.02;;;;;;;6.01;100.00;162138.44;5070943;28;20055;-59
2023/04/18 04:55:51;;;;;;;12.43;10.70;;;;;;;5.99;100.00;162131.72;5069143;28;20154;-59
2023/04/18 04:58:16;;;;;;;15.93;12.77;;;;;;;6.03;100.00;162142.50;5067765;28;20490;-58
2023/04/18 05:00:42;;;;;;;23.35;13.98;;;;;;;6.02;100.00;162141.13;5068090;28;20495;-59
2023/04/18 05:03:07;;;;;;;18.40;11.88;;;;;;;6.05;100.00;162146.53;5069656;28;20028;-59
2023/04/18 05:05:33;;;;;;;23.85;12.50;;;;;;;6.11;100.00;162162.66;5068529;28;20033;-59
2023/04/18 05:07:58;;;;;;;18.70;12.07;;;;;;;6.12;100.00;162165.38;5069075;28;20375;-58
2023/04/18 05:10:23;;;;;;;14.35;12.23;;;;;;;6.17;100.00;162178.81;5068328;28;20044;-58
2023/04/18 05:12:49;;;;;;;13.13;11.55;;;;;;;6.22;100.00;162192.25;5069942;28;20024;-58
2023/04/18 05:15:15;;;;;;;15.48;13.82;;;;;;;6.30;100.00;162213.78;5066390;28;20032;-58
2023/04/18 05:17:41;;;;;;;15.07;12.30;;;;;;;6.39;100.00;162235.34;5069900;28;20027;-58
2023/04/18 05:20:07;;;;;;;16.20;11.80;;;;;;;6.44;100.00;162248.84;5068068;28;20036;-58
2023/04/18 05:22:32;;;;;;;13.75;10.40;;;;;;;6.45;100.00;162251.47;5069053;28;20063;-58
2023/04/18 05:24:58;;;;;;;16.00;11.43;;;;;;;6.55;100.00;162278.44;5067315;28;20503;-58
2023/04/18 05:27:25;;;;;;;18.05;11.75;;;;;;;6.54;100.00;162275.72;5070545;28;20024;-58
2023/04/18 05:29:51;;;;;;;15.35;11.77;;;;;;;6.65;100.00;162304.00;5069185;28;20036;-59
2023/04/18 05:32:17;;;;;;;15.43;11.77;;;;;;;6.72;100.00;162321.53;5069942;28;20562;-58
2023/04/18 05:34:42;;;;;;;13.63;11.70;;;;;;;6.74;100.00;162326.94;5067266;28;20083;-58
2023/04/18 05:37:08;;;;;;;14.18;11.23;;;;;;;6.58;100.00;162285.16;5069922;28;20378;-58
2023/04/18 05:39:33;;;;;;;14.57;11.88;;;;;;;6.50;100.00;162266.31;5069305;28;20423;-58
2023/04/18 05:41:58;;;;;;;16.25;13.07;;;;;;;6.48;100.00;162259.59;5070385;28;20024;-58
2023/04/18 05:44:24;;;;;;;14.13;11.65;;;;;;;6.51;100.00;162267.69;5068947;28;20036;-58
2023/04/18 05:46:50;;;;;;;25.25;15.10;;;;;;;6.60;100.00;162291.88;5070806;28;20024;-58
2023/04/18 05:49:17;;;;;;;13.50;11.43;;;;;;;6.65;100.00;162305.38;5071431;28;20036;-58
2023/04/18 05:51:42;;;;;;;17.48;10.85;;;;;;;6.73;100.00;162324.22;5074519;28;20111;-58
2023/04/18 05:54:08;;;;;;;16.02;9.82;;;;;;;6.77;100.00;162334.97;5069021;28;20154;-58
2023/04/18 05:56:33;;;;;;;15.10;10.27;;;;;;;6.86;100.00;162359.22;5072341;28;20089;-58
2023/04/18 05:58:58;;;;;;;11.95;10.60;;;;;;;6.87;100.00;162361.91;5072460;28;20024;-58
2023/04/18 06:01:24;;;;;;;13.70;11.13;;;;;;;6.79;100.00;162340.38;5073968;28;20028;-58
2023/04/18 06:03:49;;;;;;;15.18;11.13;;;;;;;6.77;100.00;162334.97;5073064;28;20020;-59
2023/04/18 06:06:15;;;;;;;13.00;11.43;;;;;;;6.78;100.00;162337.66;5072135;28;20039;-59
2023/04/18 06:08:40;;;;;;;17.08;13.35;;;;;;;6.76;100.00;162332.28;5073951;28;20039;-59
2023/04/18 06:11:06;;;;;;;13.15;10.55;;;;;;;6.78;100.00;162337.66;5072117;28;20113;-59
2023/04/18 06:13:31;;;;;;;9.77;8.63;;;;;;;6.85;100.00;162356.53;5075375;28;20043;-59
2023/04/18 06:15:57;;;;;;;16.23;11.43;;;;;;;6.95;100.00;162382.09;5085240;28;20054;-59
2023/04/18 06:18:22;;;;;;;12.88;10.70;;;;;;;7.12;100.00;162426.53;5086678;28;20047;-59
2023/04/18 06:20:48;;;;;;;12.77;11.48;;;;;;;7.36;100.00;162488.50;5086007;28;20044;-58
2023/04/18 06:23:13;;;;;;;10.57;9.52;;;;;;;7.57;100.00;162543.75;5092401;28;20028;-57
2023/04/18 06:25:42;;;;;;;9.32;7.95;;;;;;;7.89;100.00;162628.63;5092641;28;20032;-57
2023/04/18 06:28:07;;;;;;;10.15;9.15;;;;;;;8.11;100.00;162685.19;5077148;28;20074;-58
2023/04/18 06:30:33;;;;;;;9.77;8.77;;;;;;;8.22;100.00;162713.50;5069224;28;20052;-59
2023/04/18 06:32:58;;;;;;;10.43;9.38;;;;;;;8.18;100.00;162704.06;5072172;28;20028;-59
2023/04/18 06:35:23;;;;;;;11.75;9.50;;;;;;;8.09;100.00;162679.81;5071694;28;20450;-59
2023/04/18 06:37:49;;;;;;;15.15;9.07;;;;;;;8.06;100.00;162671.75;5072416;28;20025;-59
2023/04/18 06:40:15;;;;;;;10.20;9.18;;;;;;;8.04;100.00;162666.34;5072179;28;20041;-59
2023/04/18 06:42:41;;;;;;;8.40;7.22;;;;;;;8.10;100.00;162682.50;5073529;28;20029;-59
2023/04/18 06:45:06;;;;;;;13.02;8.70;;;;;;;8.08;100.00;162677.09;5071660;28;20471;-59
2023/04/18 06:47:32;;;;;;;9.35;8.48;;;;;;;8.18;100.00;162704.06;5073823;28;20051;-59
2023/04/18 06:49:57;;;;;;;10.93;8.13;;;;;;;8.10;100.00;162682.50;5071857;28;20036;-59
2023/04/18 06:52:22;;;;;;;8.60;7.70;;;;;;;8.21;100.00;162710.81;5073129;28;20036;-59
2023/04/18 06:54:48;;;;;;;9.50;7.90;;;;;;;8.24;100.00;162720.25;5071933;28;20037;-59
2023/04/18 06:57:13;;;;;;;9.43;7.88;;;;;;;8.44;100.00;162771.50;5073028;28;20024;-59
2023/04/18 06:59:40;;;;;;;9.23;8.05;;;;;;;8.54;100.00;162798.47;5070949;28;20032;-58
2023/04/18 07:02:06;;;;;;;8.45;7.60;;;;;;;8.71;100.00;162841.63;5073301;28;20028;-59
2023/04/18 07:04:32;;;;;;;9.75;7.85;;;;;;;8.62;100.00;162817.34;5071981;28;20036;-59
2023/04/18 07:06:57;;;;;;;9.05;8.15;;;;;;;8.41;100.00;162763.38;5072530;28;20372;-59
2023/04/18 07:09:23;;;;;;;11.05;7.93;;;;;;;8.41;100.00;162763.38;5071920;28;20615;-59
2023/04/18 07:11:49;;;;;;;17.40;12.48;;;;;;;8.28;100.00;162728.34;5073267;28;20035;-59
2023/04/18 07:14:15;;;;;;;11.57;8.95;;;;;;;8.29;100.00;162731.03;5071323;28;20043;-59
2023/04/18 07:16:40;;;;;;;11.48;8.82;;;;;;;8.06;100.00;162671.75;5073081;28;20024;-59
2023/04/18 07:19:06;;;;;;;12.02;9.68;;;;;;;7.98;100.00;162650.19;5071485;28;20096;-59
2023/04/18 07:21:31;;;;;;;8.82;7.63;;;;;;;7.91;100.00;162634.00;5072471;28;20495;-59
2023/04/18 07:23:57;;;;;;;9.23;7.55;;;;;;;8.21;100.00;162712.19;5071498;28;20020;-59
2023/04/18 07:26:22;;;;;;;9.98;7.68;;;;;;;8.49;100.00;162785.00;5073103;28;20021;-59
2023/04/18 07:28:48;;;;;;;8.77;7.38;;;;;;;8.45;100.00;162772.81;5072390;28;20036;-59
2023/04/18 07:31:15;;;;;;;9.70;8.45;;;;;;;8.55;100.00;162801.16;5071035;28;20503;-59
2023/04/18 07:33:42;;;;;;;9.07;8.15;;;;;;;8.41;100.00;162763.38;5072789;28;20029;-59
2023/04/18 07:36:07;;;;;;;11.45;9.45;;;;;;;8.43;100.00;162768.78;5070644;28;20492;-59
2023/04/18 07:38:34;;;;;;;13.15;8.38;;;;;;;8.34;100.00;162744.50;5072462;28;20070;-59
2023/04/18 07:41:01;;;;;;;10.00;8.55;;;;;;;8.36;100.00;162749.91;5070936;28;20036;-59
2023/04/18 07:43:26;;;;;;;11.07;8.32;;;;;;;8.13;100.00;162690.63;5071916;28;20047;-59
2023/04/18 07:45:52;;;;;;;9.57;8.57;;;;;;;8.21;100.00;162710.81;5070940;28;20041;-59
2023/04/18 07:48:21;;;;;;;9.10;8.15;;;;;;;8.18;100.00;162704.06;5072005;28;20032;-59
2023/04/18 07:50:47;;;;;;;;;;;;;;;8.33;100.00;162743.19;5071164;28;20081;-59
2023/04/18 07:53:12;;;;;;;15.35;10.65;;;;;;;8.30;100.00;162733.75;5068789;28;19913;-59
2023/04/18 07:55:37;;;;;;;9.07;7.88;;;;;;;8.31;100.00;162737.78;5070428;28;20553;-59
2023/04/18 07:58:02;;;;;;;14.45;11.15;;;;;;;8.13;100.00;162689.22;5071447;28;20016;-57
2023/04/18 08:00:31;;;;;;;12.77;9.13;;;;;;;8.07;100.00;162675.78;5070678;28;20044;-57
2023/04/18 08:02:56;;;;;;;9.85;8.30;;;;;;;8.06;100.00;162673.06;5071365;28;20545;-57
2023/04/18 08:05:22;;;;;;;13.40;9.45;;;;;;;8.07;100.00;162675.78;5070235;28;20044;-58
2023/04/18 08:07:47;;;;;;;10.90;8.77;;;;;;;8.07;100.00;162674.44;5071733;28;20024;-57
2023/04/18 08:10:12;;;;;;;14.43;9.13;;;;;;;7.96;100.00;162644.78;5070368;28;20044;-58
2023/04/18 08:12:38;;;;;;;10.95;9.80;;;;;;;7.99;100.00;162654.19;5070627;28;20020;-57
2023/04/18 08:15:04;;;;;;;11.82;10.20;;;;;;;8.12;100.00;162686.59;5070090;28;20518;-57
2023/04/18 08:17:30;;;;;;;10.77;8.80;;;;;;;8.17;100.00;162701.38;5071989;28;20036;-57
2023/04/18 08:19:55;;;;;;;15.25;10.98;;;;;;;8.16;100.00;162698.66;5069613;28;20208;-57
2023/04/18 08:22:20;;;;;;;10.05;8.38;;;;;;;8.44;100.00;162771.50;5071524;28;20070;-58
2023/04/18 08:24:46;;;;;;;11.07;8.43;;;;;;;8.77;100.00;162856.47;5070292;28;20509;-57
2023/04/18 08:27:11;;;;;;;10.25;9.23;;;;;;;9.00;100.00;162917.13;5070910;28;20024;-57
2023/04/18 08:29:36;;;;;;;14.77;10.75;;;;;;;8.98;100.00;162911.72;5070161;28;20032;-58
2023/04/18 08:32:05;;;;;;;15.75;10.18;;;;;;;9.13;100.00;162952.16;5071299;28;20035;-57
2023/04/18 08:34:37;;;;;;;10.70;8.35;;;;;;;9.22;100.00;162975.13;5069687;28;20040;-58
2023/04/18 08:37:02;;;;;;;10.75;8.52;;;;;;;9.21;100.00;162973.75;5071250;28;20028;-58
2023/04/18 08:39:28;;;;;;;14.25;8.57;;;;;;;9.27;100.00;162987.28;5070065;28;20047;-58
2023/04/18 08:42:00;;;;;;;13.15;9.18;;;;;;;9.20;100.00;162971.03;5070885;28;20430;-58
2023/04/18 08:44:29;;;;;;;10.57;9.55;;;;;;;9.02;100.00;162922.53;5070042;28;20064;-57
2023/04/18 08:46:56;;;;;;;9.13;8.23;;;;;;;8.93;100.00;162898.25;5070911;28;20024;-57
2023/04/18 08:49:23;;;;;;;15.63;10.20;;;;;;;9.03;100.00;162925.22;5069532;28;20032;-58
2023/04/18 08:51:50;;;;;;;9.68;8.68;;;;;;;9.11;100.00;162945.44;5071602;28;20387;-58
2023/04/18 08:54:17;;;;;;;10.80;7.70;;;;;;;9.05;100.00;162930.59;5069454;28;20036;-58
2023/04/18 08:56:42;;;;;;;8.68;7.85;;;;;;;9.46;100.00;163038.50;5070988;28;20082;-58
2023/04/18 08:59:08;;;;;;;9.93;8.95;;;;;;;9.80;100.00;163127.50;5069396;28;20024;-57
2023/04/18 09:01:55;;;;;;;9.07;7.93;;;;;;;10.18;100.00;163224.66;5071042;28;20036;-58
2023/04/18 09:04:39;;;;;;;8.85;7.43;;;;;;;10.27;100.00;163250.34;5069438;28;20498;-58
2023/04/18 09:07:10;;;;;;;8.20;7.32;;;;;;;10.35;100.00;163270.56;5070631;28;20052;-58
2023/04/18 09:09:40;;;;;;;11.20;8.45;;;;;;;10.19;100.00;163227.38;5069646;28;20034;-58
2023/04/18 09:12:06;;;;;;;10.90;8.40;;;;;;;10.26;100.00;163246.25;5070447;28;20063;-58
2023/04/18 09:14:32;;;;;;;9.13;8.20;;;;;;;10.47;100.00;163303.00;5069531;28;20433;-57
2023/04/18 09:16:59;;;;;;;11.07;8.80;;;;;;;10.73;100.00;163370.50;5070448;28;20035;-58
2023/04/18 09:19:24;;;;;;;21.23;7.30;;;;;;;10.88;100.00;163408.28;5068645;28;20470;-58
2023/04/18 09:22:01;;;;;;;13.48;8.25;;;;;;;11.03;100.00;163448.81;5070482;28;20128;-57
2023/04/18 09:24:27;;;;;;;9.40;8.45;;;;;;;11.18;100.00;163486.59;5069030;28;20048;-58
2023/04/18 09:26:54;;;;;;;12.13;7.57;;;;;;;11.31;100.00;163521.72;5070309;28;20388;-58
2023/04/18 09:29:21;;;;;;;11.55;9.60;;;;;;;11.20;100.00;163493.34;5069503;28;20036;-58
2023/04/18 09:32:18;;;;;;;11.43;8.45;;;;;;;11.02;100.00;163446.09;5070917;28;20392;-58
2023/04/18 09:34:44;;;;;;;10.27;8.80;;;;;;;10.84;100.00;163397.47;5047471;28;20063;-57
2023/04/18 09:37:11;;;;;;;11.65;9.32;;;;;;;10.87;100.00;163405.59;5070278;28;20028;-58
2023/04/18 09:39:42;;;;;;;10.27;8.07;;;;;;;10.72;100.00;163367.78;5068942;28;20044;-57
2023/04/18 09:42:09;;;;;;;10.73;9.63;;;;;;;10.65;100.00;163348.91;5070049;28;20111;-58
2023/04/18 09:44:35;;;;;;;10.77;8.93;;;;;;;10.58;100.00;163330.00;5069105;28;20094;-58
2023/04/18 09:47:00;;;;;;;9.68;7.53;;;;;;;10.51;100.00;163311.09;5070357;28;20550;-58
2023/04/18 09:49:26;;;;;;;9.80;8.50;;;;;;;10.58;100.00;163331.31;5068405;28;20036;-58
2023/04/18 09:51:53;;;;;;;12.98;9.60;;;;;;;10.95;100.00;163427.19;5070763;28;20119;-58
2023/04/18 09:54:21;;;;;;;11.43;8.73;;;;;;;11.04;100.00;163451.50;5068966;28;20541;-58
2023/04/18 09:56:49;;;;;;;13.52;8.45;;;;;;;11.29;100.00;163516.28;5070167;28;20415;-57
2023/04/18 09:59:29;;;;;;;11.07;9.23;;;;;;;11.34;100.00;163528.44;5068963;28;20043;-58
2023/04/18 10:01:57;;;;;;;9.40;8.40;;;;;;;11.39;100.00;163543.31;5070519;28;20028;-57
2023/04/18 10:04:23;;;;;;;11.27;8.25;;;;;;;11.74;100.00;163635.16;5068721;28;20098;-58
2023/04/18 10:06:48;;;;;;;16.58;9.13;;;;;;;12.02;100.00;163706.81;5070540;28;20052;-58
2023/04/18 10:09:15;;;;;;;8.82;7.55;;;;;;;12.08;100.00;163721.69;5061969;28;20040;-58
2023/04/18 10:11:40;;;;;;;11.55;9.85;;;;;;;12.06;100.00;163718.97;5071026;28;20024;-58
2023/04/18 10:14:10;;;;;;;13.73;8.82;;;;;;;12.27;100.00;163771.66;5066648;28;20032;-58
2023/04/18 10:16:36;;;;;;;10.45;7.75;;;;;;;12.35;100.00;163794.63;5085109;28;20027;-58
2023/04/18 10:19:27;;;;;;;10.73;9.30;;;;;;;12.28;100.00;163775.72;5083406;28;20031;-57
2023/04/18 10:21:58;;;;;;;12.32;8.57;;;;;;;12.61;100.00;163862.22;5069462;28;20076;-58
2023/04/18 10:24:48;;;;;;;10.02;9.13;;;;;;;13.18;100.00;164010.88;5070044;28;20089;-58
2023/04/18 10:27:37;;;;;;;9.00;8.10;;;;;;;13.69;100.00;164143.44;5086364;28;20097;-60
2023/04/18 10:30:03;;;;;;;8.98;8.07;;;;;;;14.70;100.00;164408.66;5060420;28;20037;-58
2023/04/18 10:32:28;;;;;;;9.68;8.65;;;;;;;14.49;100.00;164354.44;5069655;28;20388;-58
2023/04/18 10:34:54;;;;;;;9.45;8.25;;;;;;;15.26;100.00;164554.78;5066915;28;20492;-58
2023/04/18 10:37:19;;;;;;;8.93;8.05;;;;;;;15.48;100.00;164614.34;5072919;28;20025;-58
2023/04/18 10:39:47;;;;;;;11.15;7.47;;;;;;;16.20;100.00;164802.63;5082624;28;20036;-58
2023/04/18 10:42:12;;;;;;;13.88;7.78;;;;;;;16.60;100.00;164906.91;5087390;28;20036;-58
2023/04/18 10:44:38;;;;;;;8.88;8.05;;;;;;;16.30;100.00;164828.34;5082901;28;20093;-58
2023/04/18 10:47:06;;;;;;;9.15;8.25;;;;;;;16.03;100.00;164757.94;5084387;28;20028;-58
2023/04/18 10:49:32;;;;;;;9.80;7.65;;;;;;;16.04;100.00;164760.66;5084207;28;20050;-58
2023/04/18 10:51:59;;;;;;;9.27;8.02;;;;;;;15.20;100.00;164541.28;5093379;28;20133;-58
2023/04/18 10:54:47;;;;;;;10.25;9.10;;;;;;;14.37;100.00;164322.00;5092057;28;20501;-58
2023/04/18 10:57:14;;;;;;;9.40;8.40;;;;;;;14.43;100.00;164338.22;5092874;28;20069;-58
2023/04/18 10:59:57;;;;;;;12.18;9.10;;;;;;;14.72;100.00;164414.03;5091908;28;20032;-58
2023/04/18 11:02:32;;;;;;;9.32;8.45;;;;;;;14.97;100.00;164479.00;5092737;28;20020;-58
2023/04/18 11:05:06;;;;;;;14.57;9.60;;;;;;;14.76;100.00;164424.88;5091391;28;20059;-58
2023/04/18 11:07:35;;;;;;;9.70;8.70;;;;;;;15.02;100.00;164492.53;5092922;28;20463;-58
2023/04/18 11:10:01;;;;;;;8.93;8.02;;;;;;;15.16;100.00;164530.41;5091117;28;20044;-59
2023/04/18 11:12:31;;;;;;;14.27;10.10;;;;;;;14.84;100.00;164445.16;5093214;28;20093;-58